createdAt,value
2022-08-04T00:02:15.811Z,10.00
2022-08-04T00:04:42.263Z,9.73
2022-08-04T00:07:16.582Z,13.40
2022-08-04T00:10:13.828Z,14.27
2022-08-04T00:12:43.467Z,10.30
2022-08-04T00:15:15.559Z,8.38
2022-08-04T00:20:39.401Z,8.98
2022-08-04T00:23:06.802Z,9.73
2022-08-04T00:25:34.348Z,9.40
2022-08-04T00:28:02.031Z,8.57
2022-08-04T00:30:28.665Z,7.50
2022-08-04T00:32:58.259Z,8.35
2022-08-04T00:35:25.291Z,6.57
2022-08-04T00:37:53.002Z,7.05
2022-08-04T00:40:25.407Z,10.30
2022-08-04T00:43:33.374Z,7.80
2022-08-04T00:46:24.914Z,8.30
2022-08-04T00:49:16.287Z,14.85
2022-08-04T00:51:42.881Z,7.82
2022-08-04T00:54:34.230Z,9.27
2022-08-04T00:57:28.589Z,6.63
2022-08-04T01:00:13.850Z,7.60
2022-08-04T01:02:59.203Z,9.10
2022-08-04T01:05:39.238Z,8.73
2022-08-04T01:08:25.975Z,7.53
2022-08-04T01:11:15.482Z,14.13
2022-08-04T01:13:54.202Z,9.85
2022-08-04T01:16:25.368Z,11.70
2022-08-04T01:19:06.159Z,8.70
2022-08-04T01:22:18.600Z,7.25
2022-08-04T01:25:09.759Z,8.25
2022-08-04T01:27:59.718Z,8.95
2022-08-04T01:30:27.953Z,6.28
2022-08-04T01:33:02.867Z,13.52
2022-08-04T01:35:48.511Z,12.35
2022-08-04T01:38:39.158Z,9.43
2022-08-04T01:41:16.297Z,4.72
2022-08-04T01:43:45.408Z,5.82
2022-08-04T01:46:15.236Z,9.70
2022-08-04T01:48:45.927Z,9.05
2022-08-04T01:51:13.198Z,8.70
2022-08-04T01:53:42.199Z,8.10
2022-08-04T01:56:10.994Z,8.85
2022-08-04T01:58:39.604Z,9.85
2022-08-04T02:01:09.245Z,10.70
2022-08-04T02:04:21.182Z,9.13
2022-08-04T02:06:52.701Z,10.05
2022-08-04T02:09:54.172Z,13.80
2022-08-04T02:12:50.961Z,13.35
2022-08-04T02:15:55.068Z,8.80
2022-08-04T02:18:30.880Z,10.60
2022-08-04T02:21:00.807Z,9.57
2022-08-04T02:23:49.430Z,12.18
2022-08-04T02:26:22.679Z,8.55
2022-08-04T02:29:04.944Z,10.88
2022-08-04T02:31:37.235Z,14.35
2022-08-04T02:34:28.978Z,8.75
2022-08-04T02:36:57.705Z,7.75
2022-08-04T02:39:28.666Z,9.60
2022-08-04T02:41:56.478Z,10.35
2022-08-04T02:44:23.970Z,8.38
2022-08-04T02:46:54.962Z,9.65
2022-08-04T02:49:23.294Z,13.93
2022-08-04T02:51:55.119Z,8.93
2022-08-04T02:54:39.580Z,11.02
2022-08-04T02:57:09.942Z,10.57
2022-08-04T03:00:11.046Z,11.68
2022-08-04T03:03:09.150Z,10.43
2022-08-04T03:06:10.962Z,10.32
2022-08-04T03:08:59.502Z,9.50
2022-08-04T03:11:45.047Z,6.65
2022-08-04T03:14:38.963Z,11.05
2022-08-04T03:17:25.838Z,9.52
2022-08-04T03:20:47.039Z,13.38
2022-08-04T03:23:38.146Z,11.02
2022-08-04T03:26:45.970Z,13.05
2022-08-04T03:29:50.414Z,11.18
2022-08-04T03:32:30.301Z,11.80
2022-08-04T03:35:22.654Z,7.53
2022-08-04T03:38:32.035Z,14.50
2022-08-04T03:41:16.785Z,10.75
2022-08-04T03:44:40.060Z,13.82
2022-08-04T03:47:15.781Z,16.70
2022-08-04T03:50:07.314Z,7.80
2022-08-04T03:53:09.304Z,13.98
2022-08-04T03:55:48.496Z,9.00
2022-08-04T03:58:49.851Z,10.70
2022-08-04T04:02:01.621Z,11.40
2022-08-04T04:04:30.594Z,6.90
2022-08-04T04:07:35.624Z,10.05
2022-08-04T04:10:29.043Z,10.95
2022-08-04T04:12:58.940Z,10.65
2022-08-04T04:15:34.550Z,11.98
2022-08-04T04:18:15.940Z,14.07
2022-08-04T04:21:20.340Z,9.90
2022-08-04T04:24:21.275Z,12.57
2022-08-04T04:27:31.948Z,12.15
2022-08-04T04:30:04.437Z,13.50
2022-08-04T04:32:33.870Z,13.37
2022-08-04T04:35:03.475Z,10.60
2022-08-04T04:37:57.065Z,9.05
2022-08-04T04:40:35.178Z,12.18
2022-08-04T04:43:09.747Z,16.02
2022-08-04T04:46:17.544Z,6.55
2022-08-04T04:48:59.187Z,7.78
2022-08-04T04:51:36.356Z,12.75
2022-08-04T04:54:19.759Z,10.13
2022-08-04T04:57:12.508Z,8.85
2022-08-04T04:59:49.940Z,11.52
2022-08-04T05:02:38.265Z,14.40
2022-08-04T05:05:20.592Z,14.35
2022-08-04T05:08:43.225Z,9.10
2022-08-04T05:11:20.587Z,15.85
2022-08-04T05:14:36.037Z,15.50
2022-08-04T05:16:44.943Z,10.05
2022-08-04T05:19:24.997Z,9.55
2022-08-04T05:22:00.974Z,10.65
2022-08-04T05:24:28.963Z,9.80
2022-08-04T05:27:05.868Z,13.02
2022-08-04T05:29:41.328Z,11.55
2022-08-04T05:32:16.216Z,14.52
2022-08-04T05:34:53.225Z,13.48
2022-08-04T05:37:38.239Z,15.88
2022-08-04T05:40:06.900Z,12.93
2022-08-04T05:42:39.380Z,12.52
2022-08-04T05:45:08.289Z,10.00
2022-08-04T05:47:36.187Z,14.00
2022-08-04T05:50:04.876Z,11.20
2022-08-04T05:52:34.050Z,14.68
2022-08-04T05:55:02.572Z,13.48
2022-08-04T05:57:30.886Z,7.63
2022-08-04T06:00:00.254Z,9.75
2022-08-04T06:02:30.758Z,12.13
2022-08-04T06:04:57.900Z,10.13
2022-08-04T06:07:26.606Z,14.98
2022-08-04T06:09:53.954Z,13.55
2022-08-04T06:12:37.660Z,16.17
2022-08-04T06:15:09.595Z,12.75
2022-08-04T06:18:33.783Z,17.85
2022-08-04T06:20:37.396Z,13.38
2022-08-04T06:23:08.731Z,12.65
2022-08-04T06:25:41.620Z,14.55
2022-08-04T06:28:08.797Z,14.95
2022-08-04T06:30:37.252Z,15.88
2022-08-04T06:33:13.943Z,11.88
2022-08-04T06:35:41.419Z,11.93
2022-08-04T06:38:08.757Z,8.73
2022-08-04T06:40:35.884Z,9.38
2022-08-04T06:43:04.999Z,17.83
2022-08-04T06:45:34.978Z,8.85
2022-08-04T06:48:02.532Z,11.23
2022-08-04T06:51:27.260Z,10.73
2022-08-04T06:53:17.474Z,10.93
2022-08-04T06:55:46.357Z,10.15
2022-08-04T06:58:14.179Z,20.35
2022-08-04T07:00:42.874Z,10.98
2022-08-04T07:03:12.157Z,11.77
2022-08-04T07:05:40.895Z,12.93
2022-08-04T07:08:10.411Z,15.95
2022-08-04T07:10:37.434Z,14.27
2022-08-04T07:13:05.178Z,15.13
2022-08-04T07:15:33.395Z,12.57
2022-08-04T07:18:01.997Z,9.07
2022-08-04T07:20:35.920Z,9.13
2022-08-04T07:23:45.664Z,8.73
2022-08-04T07:26:22.449Z,11.00
2022-08-04T07:28:49.120Z,6.75
2022-08-04T07:31:33.436Z,9.70
2022-08-04T07:34:22.247Z,6.90
2022-08-04T07:36:55.535Z,11.43
2022-08-04T07:39:27.708Z,11.43
2022-08-04T07:44:47.780Z,8.05
2022-08-04T07:47:14.804Z,6.60
2022-08-04T07:49:55.134Z,9.65
2022-08-04T07:52:25.089Z,9.07
2022-08-04T07:54:58.816Z,13.45
2022-08-04T07:57:41.186Z,10.00
2022-08-04T08:00:10.648Z,10.75
2022-08-04T08:02:38.299Z,12.50
2022-08-04T08:05:05.901Z,8.02
2022-08-04T08:07:32.579Z,12.02
2022-08-04T08:09:59.182Z,10.00
2022-08-04T08:12:36.855Z,11.15
2022-08-04T08:15:15.794Z,5.55
2022-08-04T08:17:59.130Z,8.73
2022-08-04T08:20:29.061Z,12.73
2022-08-04T08:22:57.190Z,13.48
2022-08-04T08:25:24.502Z,9.57
2022-08-04T08:27:56.348Z,7.30
2022-08-04T08:30:24.015Z,6.45
2022-08-04T08:32:51.028Z,7.82
2022-08-04T08:35:18.381Z,15.57
2022-08-04T08:37:56.376Z,12.75
2022-08-04T08:40:40.679Z,11.52
2022-08-04T08:44:04.639Z,13.73
2022-08-04T08:46:55.204Z,6.32
2022-08-04T08:50:04.355Z,7.32
2022-08-04T08:53:01.050Z,8.32
2022-08-04T08:56:08.691Z,14.05
2022-08-04T08:58:50.404Z,10.95
2022-08-04T09:01:23.053Z,14.98
2022-08-04T09:04:23.705Z,14.63
2022-08-04T09:07:46.437Z,16.00
2022-08-04T09:10:25.209Z,11.93
2022-08-04T09:12:57.801Z,11.77
2022-08-04T09:15:30.054Z,7.93
2022-08-04T09:18:06.215Z,6.80
2022-08-04T09:21:27.059Z,13.23
2022-08-04T09:24:36.707Z,7.90
2022-08-04T09:27:42.682Z,11.50
2022-08-04T09:30:12.460Z,9.65
2022-08-04T09:32:39.117Z,9.45
2022-08-04T09:35:19.285Z,12.43
2022-08-04T09:38:00.582Z,11.43
2022-08-04T09:40:53.330Z,10.07
2022-08-04T09:43:59.508Z,7.38
2022-08-04T09:46:45.943Z,9.00
2022-08-04T09:49:36.911Z,8.20
2022-08-04T09:52:42.937Z,7.93
2022-08-04T09:55:13.589Z,8.15
2022-08-04T09:58:08.192Z,9.52
2022-08-04T10:00:41.657Z,10.52
2022-08-04T10:03:15.935Z,8.73
2022-08-04T10:06:09.128Z,9.65
2022-08-04T10:08:44.401Z,12.10
2022-08-04T10:11:29.479Z,14.57
2022-08-04T10:14:22.967Z,12.55
2022-08-04T10:19:38.450Z,7.65
2022-08-04T10:22:28.622Z,11.07
2022-08-04T10:25:01.038Z,10.25
2022-08-04T10:27:36.729Z,10.15
2022-08-04T10:30:12.168Z,11.00
2022-08-04T10:32:51.509Z,11.70
2022-08-04T10:35:28.982Z,6.60
2022-08-04T10:38:04.609Z,10.38
2022-08-04T10:40:58.664Z,10.77
2022-08-04T10:43:57.843Z,9.98
2022-08-04T10:46:32.482Z,9.93
2022-08-04T10:49:29.510Z,8.48
2022-08-04T10:52:22.563Z,8.55
2022-08-04T10:55:01.656Z,7.38
2022-08-04T10:57:52.866Z,10.77
2022-08-04T11:00:24.952Z,8.95
2022-08-04T11:03:20.288Z,4.25
2022-08-04T11:06:05.475Z,7.57
2022-08-04T11:08:44.565Z,6.38
2022-08-04T11:11:22.748Z,8.60
2022-08-04T11:13:59.220Z,9.00
2022-08-04T11:16:30.307Z,5.90
2022-08-04T11:19:12.065Z,6.75
2022-08-04T11:21:49.321Z,6.57
2022-08-04T11:24:33.082Z,8.45
2022-08-04T11:27:05.247Z,7.30
2022-08-04T11:29:50.130Z,5.33
2022-08-04T11:32:39.507Z,4.90
2022-08-04T11:35:12.257Z,4.45
2022-08-04T11:38:09.602Z,5.28
2022-08-04T11:41:02.747Z,4.88
2022-08-04T11:43:56.459Z,7.80
2022-08-04T11:46:30.587Z,6.65
2022-08-04T11:49:03.788Z,9.77
2022-08-04T11:51:32.141Z,8.90
2022-08-04T11:54:00.346Z,14.25
2022-08-04T11:56:36.669Z,14.63
2022-08-04T11:59:07.660Z,8.07
2022-08-04T12:02:16.711Z,8.10
2022-08-04T12:04:55.862Z,6.68
2022-08-04T12:07:45.540Z,9.05
2022-08-04T12:10:41.551Z,5.63
2022-08-04T12:13:26.432Z,5.45
2022-08-04T12:16:03.655Z,3.95
2022-08-04T12:18:39.521Z,6.35
2022-08-04T12:21:53.089Z,5.00
2022-08-04T12:24:27.866Z,3.10
2022-08-04T12:26:58.402Z,3.85
2022-08-04T12:29:27.582Z,7.03
2022-08-04T12:32:22.889Z,9.65
2022-08-04T12:35:12.848Z,3.75
2022-08-04T12:37:48.478Z,7.47
2022-08-04T12:40:35.974Z,6.18
2022-08-04T12:43:15.125Z,5.28
2022-08-04T12:45:49.927Z,4.03
2022-08-04T12:48:21.607Z,3.17
2022-08-04T12:50:51.769Z,7.95
2022-08-04T12:53:31.984Z,4.60
2022-08-04T12:56:03.165Z,6.55
2022-08-04T12:58:43.118Z,9.07
2022-08-04T13:02:07.276Z,4.43
2022-08-04T13:04:29.513Z,5.10
2022-08-04T13:07:12.413Z,5.13
2022-08-04T13:09:40.247Z,5.40
2022-08-04T13:12:20.769Z,4.25
2022-08-04T13:14:50.725Z,3.30
2022-08-04T13:17:17.581Z,8.48
2022-08-04T13:19:51.961Z,5.72
2022-08-04T13:22:30.239Z,11.07
2022-08-04T13:26:41.574Z,7.05
2022-08-04T13:27:48.295Z,9.40
2022-08-04T13:30:22.910Z,8.98
2022-08-04T13:32:55.636Z,7.00
2022-08-04T13:35:25.903Z,6.97
2022-08-04T13:38:15.261Z,9.63
2022-08-04T13:40:43.396Z,5.00
2022-08-04T13:44:15.415Z,5.05
2022-08-04T13:46:13.274Z,6.15
2022-08-04T13:48:42.805Z,7.68
2022-08-04T13:51:11.319Z,7.85
2022-08-04T13:53:40.978Z,5.50
2022-08-04T13:56:13.060Z,9.50
2022-08-04T13:58:44.285Z,6.50
2022-08-04T14:01:20.412Z,10.05
2022-08-04T14:04:50.047Z,8.32
2022-08-04T14:07:21.222Z,8.85
2022-08-04T14:10:03.163Z,6.07
2022-08-04T14:12:45.349Z,6.97
2022-08-04T14:16:02.661Z,3.75
2022-08-04T14:18:29.761Z,8.40
2022-08-04T14:21:07.560Z,7.75
2022-08-04T14:23:52.297Z,5.78
2022-08-04T14:26:30.038Z,6.57
2022-08-04T14:29:27.053Z,6.20
2022-08-04T14:32:03.096Z,12.07
2022-08-04T14:34:39.348Z,12.07
2022-08-04T14:37:23.133Z,8.13
2022-08-04T14:40:07.897Z,7.45
2022-08-04T14:42:44.317Z,8.18
2022-08-04T14:45:17.109Z,7.32
2022-08-04T14:50:23.513Z,4.93
2022-08-04T14:52:50.136Z,5.22
2022-08-04T14:55:17.278Z,9.32
2022-08-04T14:58:36.511Z,7.15
2022-08-04T15:00:35.423Z,8.10
2022-08-04T15:03:09.581Z,5.97
2022-08-04T15:06:00.616Z,8.23
2022-08-04T15:08:31.557Z,7.70
2022-08-04T15:11:02.670Z,3.92
2022-08-04T15:13:30.857Z,2.28
2022-08-04T15:16:01.050Z,6.57
2022-08-04T15:18:36.069Z,6.72
2022-08-04T15:21:04.284Z,6.35
2022-08-04T15:23:33.341Z,4.10
2022-08-04T15:26:09.883Z,8.38
2022-08-04T15:28:38.429Z,8.15
2022-08-04T15:32:03.503Z,6.93
2022-08-04T15:33:55.883Z,5.32
2022-08-04T15:36:34.784Z,7.95
2022-08-04T15:39:31.878Z,6.50
2022-08-04T15:42:21.871Z,6.70
2022-08-04T15:44:51.657Z,5.80
2022-08-04T15:47:20.616Z,2.63
2022-08-04T15:50:03.485Z,7.03
2022-08-04T15:52:32.073Z,6.55
2022-08-04T15:55:32.552Z,8.70
2022-08-04T15:58:05.322Z,4.53
2022-08-04T16:00:50.310Z,4.28
2022-08-04T16:03:58.158Z,8.13
2022-08-04T16:06:22.456Z,6.15
2022-08-04T16:08:57.217Z,3.00
2022-08-04T16:11:31.669Z,5.28
2022-08-04T16:14:09.488Z,4.07
2022-08-04T16:17:14.364Z,3.92
2022-08-04T16:19:44.650Z,7.32
2022-08-04T16:22:31.445Z,9.07
2022-08-04T16:24:58.314Z,4.90
2022-08-04T16:27:40.350Z,5.25
2022-08-04T16:30:14.096Z,4.63
2022-08-04T16:32:46.942Z,6.53
2022-08-04T16:35:31.401Z,5.57
2022-08-04T16:38:16.776Z,5.43
2022-08-04T16:40:50.729Z,6.63
2022-08-04T16:43:18.757Z,2.50
2022-08-04T16:45:56.116Z,5.97
2022-08-04T16:48:43.880Z,4.85
2022-08-04T16:51:18.442Z,7.15
2022-08-04T16:53:53.250Z,4.70
2022-08-04T16:56:30.498Z,8.07
2022-08-04T16:59:07.351Z,7.70
2022-08-04T17:01:34.724Z,2.00
2022-08-04T17:04:06.241Z,3.72
2022-08-04T17:06:38.983Z,5.00
2022-08-04T17:09:10.240Z,4.00
2022-08-04T17:11:37.065Z,5.80
2022-08-04T17:14:06.126Z,8.35
2022-08-04T17:16:35.730Z,3.67
2022-08-04T17:19:02.572Z,3.33
2022-08-04T17:21:32.098Z,6.30
2022-08-04T17:24:14.286Z,4.70
2022-08-04T17:26:54.269Z,8.05
2022-08-04T17:29:43.922Z,3.97
2022-08-04T17:32:19.648Z,3.45
2022-08-04T17:34:48.677Z,4.72
2022-08-04T17:44:03.621Z,5.40
2022-08-04T17:46:28.120Z,7.70
2022-08-04T17:49:16.965Z,8.83
2022-08-04T17:52:01.677Z,10.25
2022-08-04T17:54:37.286Z,4.82
2022-08-04T17:57:19.954Z,8.52
2022-08-04T17:59:57.464Z,6.03
2022-08-04T18:02:32.919Z,7.05
2022-08-04T18:05:07.372Z,3.65
2022-08-04T18:08:38.683Z,3.95
2022-08-04T18:10:44.487Z,4.45
2022-08-04T18:13:28.815Z,5.78
2022-08-04T18:18:33.280Z,9.40
2022-08-04T18:21:11.085Z,3.58
2022-08-04T18:23:51.354Z,5.30
2022-08-04T18:26:18.376Z,4.50
2022-08-04T18:28:50.891Z,6.25
2022-08-04T18:31:17.948Z,7.97
2022-08-04T18:33:57.205Z,3.78
2022-08-04T18:36:33.751Z,3.40
2022-08-04T18:39:12.628Z,6.43
2022-08-04T18:42:01.624Z,8.55
2022-08-04T18:44:29.501Z,4.43
2022-08-04T18:47:19.278Z,4.25
2022-08-04T18:50:59.424Z,6.82
2022-08-04T18:52:35.587Z,6.85
2022-08-04T18:55:09.797Z,8.93
2022-08-04T18:58:01.220Z,4.22
2022-08-04T19:00:32.367Z,4.53
2022-08-04T19:05:38.078Z,5.90
2022-08-04T19:08:33.559Z,5.40
2022-08-04T19:10:59.515Z,4.45
2022-08-04T19:13:29.722Z,3.95
2022-08-04T19:16:02.752Z,6.63
2022-08-04T19:18:47.564Z,8.13
2022-08-04T19:21:14.464Z,4.32
2022-08-04T19:24:28.195Z,6.68
2022-08-04T19:26:28.624Z,5.90
2022-08-04T19:28:55.846Z,8.77
2022-08-04T19:31:34.500Z,4.97
2022-08-04T19:34:07.400Z,3.83
2022-08-04T19:36:37.445Z,3.95
2022-08-04T19:39:11.613Z,2.90
2022-08-04T19:44:30.060Z,5.82
2022-08-04T19:47:00.686Z,4.25
2022-08-04T19:50:04.775Z,6.72
2022-08-04T19:52:33.999Z,3.90
2022-08-04T19:55:11.269Z,4.75
2022-08-04T19:57:46.206Z,3.80
2022-08-04T20:00:33.346Z,4.90
2022-08-04T20:03:03.237Z,4.72
2022-08-04T20:05:52.518Z,2.13
2022-08-04T20:08:20.802Z,2.53
2022-08-04T20:11:07.468Z,5.15
2022-08-04T20:13:38.752Z,4.35
2022-08-04T20:16:29.711Z,3.35
2022-08-04T20:19:00.887Z,5.40
2022-08-04T20:21:53.562Z,10.30
2022-08-04T20:24:40.781Z,3.80
2022-08-04T20:27:09.049Z,11.27
2022-08-04T20:29:49.460Z,4.88
2022-08-04T20:35:07.474Z,6.47
2022-08-04T20:37:55.135Z,5.22
2022-08-04T20:40:29.797Z,8.13
2022-08-04T20:43:01.868Z,9.35
2022-08-04T20:45:55.848Z,5.20
2022-08-04T20:48:17.008Z,5.32
2022-08-04T20:50:47.949Z,6.40
2022-08-04T20:53:16.418Z,4.97
2022-08-04T20:55:54.717Z,4.65
2022-08-04T20:58:22.209Z,6.28
2022-08-04T21:00:55.049Z,6.75
2022-08-04T21:03:49.659Z,7.50
2022-08-04T21:06:08.904Z,9.38
2022-08-04T21:08:36.865Z,6.13
2022-08-04T21:11:04.224Z,9.18
2022-08-04T21:16:54.082Z,5.05
2022-08-04T21:19:13.165Z,5.47
2022-08-04T21:21:41.150Z,7.18
2022-08-04T21:24:09.224Z,5.05
2022-08-04T21:26:35.910Z,7.85
2022-08-04T21:29:04.417Z,4.35
2022-08-04T21:31:31.082Z,5.70
2022-08-04T21:34:03.455Z,6.10
2022-08-04T21:36:30.175Z,6.47
2022-08-04T21:38:57.824Z,3.38
2022-08-04T21:41:26.911Z,6.10
2022-08-04T21:43:55.004Z,3.67
2022-08-04T21:46:22.166Z,4.78
2022-08-04T21:48:49.254Z,6.88
2022-08-04T21:51:56.832Z,5.43
2022-08-04T21:54:11.569Z,6.15
2022-08-04T21:56:41.751Z,4.50
2022-08-04T21:59:18.293Z,5.22
2022-08-04T22:01:54.718Z,6.88
2022-08-04T22:04:21.676Z,5.05
2022-08-04T22:06:52.120Z,4.05
2022-08-04T22:09:19.564Z,5.25
2022-08-04T22:11:50.746Z,6.53
2022-08-04T22:14:35.569Z,6.38
2022-08-04T22:17:04.107Z,5.43
2022-08-04T22:19:50.160Z,6.13
2022-08-04T22:22:25.065Z,10.20
2022-08-04T22:24:55.132Z,5.07
2022-08-04T22:27:43.657Z,7.13
2022-08-04T22:30:17.229Z,5.45
2022-08-04T22:32:44.461Z,6.03
2022-08-04T22:35:35.822Z,4.03
2022-08-04T22:38:05.829Z,5.80
2022-08-04T22:40:36.081Z,3.92
2022-08-04T22:43:03.464Z,4.35
2022-08-04T22:45:49.995Z,5.93
2022-08-04T22:48:18.245Z,8.48
2022-08-04T22:50:44.838Z,4.45
2022-08-04T22:53:11.518Z,8.55
2022-08-04T22:58:31.391Z,7.38
2022-08-04T23:00:58.549Z,6.10
2022-08-04T23:03:37.157Z,8.73
2022-08-04T23:06:10.996Z,5.65
2022-08-04T23:08:43.223Z,13.05
2022-08-04T23:11:13.461Z,11.45
2022-08-04T23:13:41.740Z,7.68
2022-08-04T23:16:09.836Z,8.60
2022-08-04T23:18:41.924Z,6.97
2022-08-04T23:21:10.108Z,5.60
2022-08-04T23:23:38.189Z,6.50
2022-08-04T23:26:16.139Z,10.23
2022-08-04T23:28:46.024Z,7.18
2022-08-04T23:31:14.403Z,6.43
2022-08-04T23:33:49.235Z,5.80
2022-08-04T23:36:17.801Z,7.70
2022-08-04T23:38:44.455Z,7.72
2022-08-04T23:41:17.276Z,8.57
2022-08-04T23:43:55.070Z,7.45
2022-08-04T23:46:22.503Z,6.38
2022-08-04T23:48:49.527Z,6.53
2022-08-04T23:51:16.547Z,10.57
2022-08-04T23:54:03.285Z,5.57
2022-08-04T23:56:32.612Z,6.35
2022-08-04T23:59:00.085Z,6.72
